sensor_id;sensor_type;location;lat;lon;timestamp;temperature;humidity
21417;DHT22;10869;52.238;10.716;2023-06-10T05:27:56;14.10;99.90
21417;DHT22;10869;52.238;10.716;2023-06-10T05:30:26;14.10;99.90
21417;DHT22;10869;52.238;10.716;2023-06-10T05:32:54;14.20;99.90
21417;DHT22;10869;52.238;10.716;2023-06-10T05:35:23;14.20;99.90
21417;DHT22;10869;52.238;10.716;2023-06-10T05:37:49;14.40;99.90
21417;DHT22;10869;52.238;10.716;2023-06-10T05:40:15;14.50;99.90
21417;DHT22;10869;52.238;10.716;2023-06-10T05:42:44;14.60;99.90
21417;DHT22;10869;52.238;10.716;2023-06-10T05:45:14;14.60;99.90
21417;DHT22;10869;52.238;10.716;2023-06-10T05:47:40;14.70;99.90
21417;DHT22;10869;52.238;10.716;2023-06-10T05:50:06;14.70;99.90
21417;DHT22;10869;52.238;10.716;2023-06-10T05:55:59;14.70;99.90
21417;DHT22;10869;52.238;10.716;2023-06-10T06:01:49;14.90;99.90
21417;DHT22;10869;52.238;10.716;2023-06-10T06:04:16;14.90;99.90
21417;DHT22;10869;52.238;10.716;2023-06-10T06:06:43;15.10;99.90
21417;DHT22;10869;52.238;10.716;2023-06-10T06:09:09;15.50;99.90
21417;DHT22;10869;52.238;10.716;2023-06-10T06:11:35;16.10;99.90
21417;DHT22;10869;52.238;10.716;2023-06-10T06:14:01;16.10;99.90
21417;DHT22;10869;52.238;10.716;2023-06-10T06:16:27;16.20;99.90
21417;DHT22;10869;52.238;10.716;2023-06-10T06:18:53;16.40;99.90
21417;DHT22;10869;52.238;10.716;2023-06-10T06:21:18;16.60;99.90
21417;DHT22;10869;52.238;10.716;2023-06-10T06:23:44;16.60;99.90
21417;DHT22;10869;52.238;10.716;2023-06-10T06:29:35;16.80;99.90
21417;DHT22;10869;52.238;10.716;2023-06-10T06:32:01;16.80;99.90
21417;DHT22;10869;52.238;10.716;2023-06-10T06:34:27;16.80;99.90
21417;DHT22;10869;52.238;10.716;2023-06-10T06:36:53;16.80;99.90
21417;DHT22;10869;52.238;10.716;2023-06-10T06:39:18;16.90;99.90
21417;DHT22;10869;52.238;10.716;2023-06-10T06:41:44;17.00;99.90
21417;DHT22;10869;52.238;10.716;2023-06-10T06:44:10;17.10;99.90
21417;DHT22;10869;52.238;10.716;2023-06-10T06:46:36;17.20;99.90
21417;DHT22;10869;52.238;10.716;2023-06-10T06:49:02;17.20;99.90
21417;DHT22;10869;52.238;10.716;2023-06-10T06:51:28;17.20;99.90
21417;DHT22;10869;52.238;10.716;2023-06-10T06:53:57;17.10;99.90
21417;DHT22;10869;52.238;10.716;2023-06-10T06:56:28;17.20;99.90
21417;DHT22;10869;52.238;10.716;2023-06-10T06:58:54;17.20;99.90
21417;DHT22;10869;52.238;10.716;2023-06-10T07:04:42;17.40;99.90
21417;DHT22;10869;52.238;10.716;2023-06-10T07:07:09;17.40;99.90
21417;DHT22;10869;52.238;10.716;2023-06-10T07:12:59;17.60;99.90
21417;DHT22;10869;52.238;10.716;2023-06-10T07:15:25;17.70;99.90
21417;DHT22;10869;52.238;10.716;2023-06-10T07:27:39;17.80;99.90
21417;DHT22;10869;52.238;10.716;2023-06-10T07:30:31;17.80;99.90
21417;DHT22;10869;52.238;10.716;2023-06-10T07:33:24;17.70;99.90
21417;DHT22;10869;52.238;10.716;2023-06-10T07:39:34;17.90;99.90
21417;DHT22;10869;52.238;10.716;2023-06-10T07:48:30;18.20;99.90
21417;DHT22;10869;52.238;10.716;2023-06-10T07:51:40;18.30;99.90
21417;DHT22;10869;52.238;10.716;2023-06-10T07:57:30;18.60;99.90
21417;DHT22;10869;52.238;10.716;2023-06-10T08:00:00;18.70;99.90
21417;DHT22;10869;52.238;10.716;2023-06-10T08:05:51;18.70;99.90
21417;DHT22;10869;52.238;10.716;2023-06-10T08:08:17;18.80;99.90
21417;DHT22;10869;52.238;10.716;2023-06-10T08:10:43;18.90;99.90
21417;DHT22;10869;52.238;10.716;2023-06-10T08:13:09;19.00;99.90
21417;DHT22;10869;52.238;10.716;2023-06-10T08:15:34;19.10;99.90
21417;DHT22;10869;52.238;10.716;2023-06-10T08:18:03;19.10;99.90
21417;DHT22;10869;52.238;10.716;2023-06-10T08:20:39;19.30;99.90
21417;DHT22;10869;52.238;10.716;2023-06-10T08:38:38;19.90;99.90
21417;DHT22;10869;52.238;10.716;2023-06-10T08:41:06;20.10;99.90
21417;DHT22;10869;52.238;10.716;2023-06-10T08:43:37;20.20;99.90
21417;DHT22;10869;52.238;10.716;2023-06-10T08:46:08;20.30;99.90
21417;DHT22;10869;52.238;10.716;2023-06-10T09:29:58;22.60;99.90
21417;DHT22;10869;52.238;10.716;2023-06-10T09:32:25;22.80;99.90
21417;DHT22;10869;52.238;10.716;2023-06-10T09:34:50;22.90;99.90
21417;DHT22;10869;52.238;10.716;2023-06-10T09:37:23;23.00;99.90
21417;DHT22;10869;52.238;10.716;2023-06-10T09:40:06;23.10;99.90
21417;DHT22;10869;52.238;10.716;2023-06-10T09:42:33;23.20;99.90
21417;DHT22;10869;52.238;10.716;2023-06-10T09:48:22;23.50;99.90
21417;DHT22;10869;52.238;10.716;2023-06-10T09:50:52;23.60;99.90
21417;DHT22;10869;52.238;10.716;2023-06-10T09:53:18;23.70;99.90
21417;DHT22;10869;52.238;10.716;2023-06-10T09:55:44;23.90;99.90
21417;DHT22;10869;52.238;10.716;2023-06-10T09:58:10;24.00;99.90
21417;DHT22;10869;52.238;10.716;2023-06-10T10:00:36;24.10;99.90
21417;DHT22;10869;52.238;10.716;2023-06-10T10:03:02;24.30;99.90
21417;DHT22;10869;52.238;10.716;2023-06-10T10:05:30;24.40;99.90
21417;DHT22;10869;52.238;10.716;2023-06-10T10:07:56;24.60;99.90
21417;DHT22;10869;52.238;10.716;2023-06-10T10:10:22;24.80;99.90
21417;DHT22;10869;52.238;10.716;2023-06-10T10:12:50;24.90;99.90
21417;DHT22;10869;52.238;10.716;2023-06-10T10:15:17;25.00;99.90
21417;DHT22;10869;52.238;10.716;2023-06-10T10:17:53;25.20;99.90
21417;DHT22;10869;52.238;10.716;2023-06-10T10:20:26;25.40;99.90
21417;DHT22;10869;52.238;10.716;2023-06-10T10:22:52;25.60;99.90
21417;DHT22;10869;52.238;10.716;2023-06-10T10:25:27;25.80;99.90
21417;DHT22;10869;52.238;10.716;2023-06-10T10:28:11;26.00;99.90
21417;DHT22;10869;52.238;10.716;2023-06-10T10:30:59;26.20;99.90
21417;DHT22;10869;52.238;10.716;2023-06-10T10:36:19;26.30;98.70
21417;DHT22;10869;52.238;10.716;2023-06-10T10:38:46;26.30;98.60
21417;DHT22;10869;52.238;10.716;2023-06-10T10:41:14;26.30;98.50
21417;DHT22;10869;52.238;10.716;2023-06-10T10:43:59;26.40;98.70
21417;DHT22;10869;52.238;10.716;2023-06-10T10:52:00;26.90;98.50
21417;DHT22;10869;52.238;10.716;2023-06-10T10:54:36;27.00;98.30
21417;DHT22;10869;52.238;10.716;2023-06-10T10:57:16;27.10;97.60
21417;DHT22;10869;52.238;10.716;2023-06-10T10:59:52;27.20;97.80
21417;DHT22;10869;52.238;10.716;2023-06-10T11:02:31;27.50;97.70
21417;DHT22;10869;52.238;10.716;2023-06-10T11:05:01;27.60;97.20
21417;DHT22;10869;52.238;10.716;2023-06-10T11:07:31;27.60;96.40
21417;DHT22;10869;52.238;10.716;2023-06-10T11:12:54;27.80;96.80
21417;DHT22;10869;52.238;10.716;2023-06-10T12:32:51;30.60;89.50
21417;DHT22;10869;52.238;10.716;2023-06-10T12:35:30;30.50;90.50
21417;DHT22;10869;52.238;10.716;2023-06-10T12:38:05;30.80;90.50
21417;DHT22;10869;52.238;10.716;2023-06-10T15:03:42;31.00;73.50
21417;DHT22;10869;52.238;10.716;2023-06-10T15:09:03;31.10;74.60
21417;DHT22;10869;52.238;10.716;2023-06-10T15:14:25;30.50;76.70
21417;DHT22;10869;52.238;10.716;2023-06-10T15:16:51;30.00;77.60
21417;DHT22;10869;52.238;10.716;2023-06-10T15:19:17;29.60;78.60
21417;DHT22;10869;52.238;10.716;2023-06-10T15:21:43;29.30;78.70
21417;DHT22;10869;52.238;10.716;2023-06-10T15:24:09;29.10;79.40
21417;DHT22;10869;52.238;10.716;2023-06-10T15:26:46;29.00;80.30
21417;DHT22;10869;52.238;10.716;2023-06-10T15:47:17;25.10;83.80
21417;DHT22;10869;52.238;10.716;2023-06-10T15:49:46;24.70;89.90
21417;DHT22;10869;52.238;10.716;2023-06-10T15:52:11;24.20;90.40
21417;DHT22;10869;52.238;10.716;2023-06-10T15:54:37;23.70;92.00
21417;DHT22;10869;52.238;10.716;2023-06-10T15:57:03;23.10;93.00
21417;DHT22;10869;52.238;10.716;2023-06-10T16:02:06;22.10;97.60
21417;DHT22;10869;52.238;10.716;2023-06-10T19:32:31;17.50;99.90
21417;DHT22;10869;52.238;10.716;2023-06-10T19:34:57;17.40;99.90
21417;DHT22;10869;52.238;10.716;2023-06-10T19:37:23;17.40;99.90
21417;DHT22;10869;52.238;10.716;2023-06-10T19:39:53;17.30;99.90
21417;DHT22;10869;52.238;10.716;2023-06-10T19:42:19;17.20;99.90
21417;DHT22;10869;52.238;10.716;2023-06-10T19:44:45;17.10;99.90
21417;DHT22;10869;52.238;10.716;2023-06-10T19:47:11;17.10;99.90
21417;DHT22;10869;52.238;10.716;2023-06-10T19:49:37;17.10;99.90
21417;DHT22;10869;52.238;10.716;2023-06-10T19:52:03;17.00;99.90
21417;DHT22;10869;52.238;10.716;2023-06-10T19:54:32;16.90;99.90
21417;DHT22;10869;52.238;10.716;2023-06-10T19:59:34;16.90;99.90
21417;DHT22;10869;52.238;10.716;2023-06-10T20:09:44;16.80;99.90
21417;DHT22;10869;52.238;10.716;2023-06-10T20:12:10;16.90;99.90
21417;DHT22;10869;52.238;10.716;2023-06-10T20:14:36;16.80;99.90
21417;DHT22;10869;52.238;10.716;2023-06-10T20:17:02;16.80;99.90
21417;DHT22;10869;52.238;10.716;2023-06-10T20:19:27;16.80;99.90
21417;DHT22;10869;52.238;10.716;2023-06-10T20:21:53;16.90;99.90
21417;DHT22;10869;52.238;10.716;2023-06-10T20:26:54;17.20;99.90
21417;DHT22;10869;52.238;10.716;2023-06-10T20:29:20;17.30;99.90
21417;DHT22;10869;52.238;10.716;2023-06-10T20:31:46;17.30;99.90
21417;DHT22;10869;52.238;10.716;2023-06-10T20:34:12;17.30;99.90
21417;DHT22;10869;52.238;10.716;2023-06-10T20:36:38;17.40;99.90
21417;DHT22;10869;52.238;10.716;2023-06-10T20:39:04;17.40;99.90
21417;DHT22;10869;52.238;10.716;2023-06-10T20:44:52;17.40;99.90
21417;DHT22;10869;52.238;10.716;2023-06-10T20:47:19;17.60;99.90
21417;DHT22;10869;52.238;10.716;2023-06-10T20:49:45;17.70;99.90
21417;DHT22;10869;52.238;10.716;2023-06-10T20:52:11;17.70;99.90
21417;DHT22;10869;52.238;10.716;2023-06-10T20:54:37;17.70;99.90
21417;DHT22;10869;52.238;10.716;2023-06-10T20:57:02;17.70;99.90
21417;DHT22;10869;52.238;10.716;2023-06-10T20:59:28;17.60;99.90
21417;DHT22;10869;52.238;10.716;2023-06-10T21:01:54;17.60;99.90
21417;DHT22;10869;52.238;10.716;2023-06-10T21:04:21;17.60;99.90
21417;DHT22;10869;52.238;10.716;2023-06-10T21:06:46;17.70;99.90
21417;DHT22;10869;52.238;10.716;2023-06-10T21:09:12;17.70;99.90
21417;DHT22;10869;52.238;10.716;2023-06-10T21:11:38;17.70;99.90
21417;DHT22;10869;52.238;10.716;2023-06-10T21:14:04;17.70;99.90
21417;DHT22;10869;52.238;10.716;2023-06-10T21:16:29;17.70;99.90
21417;DHT22;10869;52.238;10.716;2023-06-10T21:18:56;17.70;99.90
21417;DHT22;10869;52.238;10.716;2023-06-10T21:21:22;17.70;99.90
21417;DHT22;10869;52.238;10.716;2023-06-10T21:23:48;17.80;99.90
21417;DHT22;10869;52.238;10.716;2023-06-10T21:26:14;17.80;99.90
21417;DHT22;10869;52.238;10.716;2023-06-10T21:28:39;17.80;99.90
21417;DHT22;10869;52.238;10.716;2023-06-10T21:31:05;17.90;99.90
21417;DHT22;10869;52.238;10.716;2023-06-10T21:33:31;18.00;99.90
21417;DHT22;10869;52.238;10.716;2023-06-10T21:35:57;18.10;99.90
21417;DHT22;10869;52.238;10.716;2023-06-10T21:38:23;18.20;99.90
21417;DHT22;10869;52.238;10.716;2023-06-10T21:40:51;18.20;99.90
21417;DHT22;10869;52.238;10.716;2023-06-10T21:43:16;18.40;99.90
21417;DHT22;10869;52.238;10.716;2023-06-10T21:45:50;18.40;99.90
21417;DHT22;10869;52.238;10.716;2023-06-10T21:48:19;18.40;99.90
21417;DHT22;10869;52.238;10.716;2023-06-10T21:50:46;18.50;99.90
21417;DHT22;10869;52.238;10.716;2023-06-10T21:53:12;18.40;99.90
21417;DHT22;10869;52.238;10.716;2023-06-10T21:55:38;18.40;99.90
21417;DHT22;10869;52.238;10.716;2023-06-10T21:58:05;18.40;99.90
21417;DHT22;10869;52.238;10.716;2023-06-10T22:00:31;18.30;99.90
21417;DHT22;10869;52.238;10.716;2023-06-10T22:03:00;18.20;99.90
21417;DHT22;10869;52.238;10.716;2023-06-10T22:05:27;18.20;99.90
21417;DHT22;10869;52.238;10.716;2023-06-10T22:07:53;18.10;99.90
21417;DHT22;10869;52.238;10.716;2023-06-10T22:10:19;18.10;99.90
21417;DHT22;10869;52.238;10.716;2023-06-10T22:12:48;18.10;99.90
21417;DHT22;10869;52.238;10.716;2023-06-10T22:15:16;18.00;99.90
21417;DHT22;10869;52.238;10.716;2023-06-10T22:17:43;18.00;99.90
21417;DHT22;10869;52.238;10.716;2023-06-10T22:20:11;17.90;99.90
21417;DHT22;10869;52.238;10.716;2023-06-10T22:22:38;17.90;99.90
21417;DHT22;10869;52.238;10.716;2023-06-10T22:25:07;17.90;99.90
21417;DHT22;10869;52.238;10.716;2023-06-10T22:27:33;17.80;99.90
21417;DHT22;10869;52.238;10.716;2023-06-10T22:29:59;17.80;99.90
21417;DHT22;10869;52.238;10.716;2023-06-10T22:32:26;17.80;99.90
21417;DHT22;10869;52.238;10.716;2023-06-10T22:34:52;17.70;99.90
21417;DHT22;10869;52.238;10.716;2023-06-10T22:37:18;17.70;99.90
21417;DHT22;10869;52.238;10.716;2023-06-10T22:39:46;17.70;99.90
21417;DHT22;10869;52.238;10.716;2023-06-10T22:42:12;17.70;99.90
21417;DHT22;10869;52.238;10.716;2023-06-10T22:44:37;17.60;99.90
21417;DHT22;10869;52.238;10.716;2023-06-10T22:47:04;17.70;99.90
21417;DHT22;10869;52.238;10.716;2023-06-10T22:49:30;17.60;99.90
21417;DHT22;10869;52.238;10.716;2023-06-10T22:51:56;17.60;99.90
21417;DHT22;10869;52.238;10.716;2023-06-10T22:54:22;17.60;99.90
21417;DHT22;10869;52.238;10.716;2023-06-10T22:56:48;17.60;99.90
21417;DHT22;10869;52.238;10.716;2023-06-10T22:59:14;17.60;99.90
